createdAt,value
2016-10-16T00:00:39.022Z,21.51
2016-10-16T00:01:49.475Z,21.46
2016-10-16T00:03:00.088Z,21.44
2016-10-16T00:04:10.542Z,21.44
2016-10-16T00:05:20.998Z,21.38
2016-10-16T00:06:31.842Z,21.35
2016-10-16T00:07:42.300Z,21.34
2016-10-16T00:08:52.858Z,21.32
2016-10-16T00:10:03.332Z,21.34
2016-10-16T00:11:13.797Z,21.34
2016-10-16T00:12:24.631Z,21.36
2016-10-16T00:13:35.089Z,21.35
2016-10-16T00:14:45.645Z,21.32
2016-10-16T00:15:56.486Z,21.3
2016-10-16T00:17:06.949Z,21.29
2016-10-16T00:18:17.415Z,21.3
2016-10-16T00:19:27.869Z,21.32
2016-10-16T00:20:38.428Z,21.39
2016-10-16T00:21:48.874Z,21.3
2016-10-16T00:22:59.345Z,21.38
2016-10-16T00:24:09.894Z,21.39
2016-10-16T00:25:20.457Z,21.34
2016-10-16T00:26:31.067Z,21.32
2016-10-16T00:27:41.520Z,21.38
2016-10-16T00:28:51.988Z,21.27
2016-10-16T00:30:02.449Z,21.36
2016-10-16T00:32:10.414Z,21.32
2016-10-16T00:33:20.883Z,21.35
2016-10-16T00:34:31.344Z,21.35
2016-10-16T00:35:41.794Z,21.39
2016-10-16T00:36:52.560Z,21.36
2016-10-16T00:38:03.179Z,21.38
2016-10-16T00:39:13.847Z,21.3
2016-10-16T00:40:24.496Z,21.27
2016-10-16T00:41:35.010Z,21.3
2016-10-16T00:42:45.605Z,21.26
2016-10-16T00:43:56.090Z,21.26
2016-10-16T00:45:06.581Z,21.29
2016-10-16T00:46:17.528Z,21.3
2016-10-16T00:47:28.065Z,21.29
2016-10-16T00:48:38.692Z,21.3
2016-10-16T00:49:49.188Z,21.27
2016-10-16T00:50:59.752Z,21.16
2016-10-16T00:52:10.296Z,21.24
2016-10-16T00:53:20.820Z,21.23
2016-10-16T00:54:31.862Z,21.24
2016-10-16T00:55:42.413Z,21.19
2016-10-16T00:56:52.965Z,21.19
2016-10-16T00:58:03.895Z,21.17
2016-10-16T00:59:14.423Z,21.11
2016-10-16T01:00:25.051Z,21.2
2016-10-16T01:01:35.584Z,21.19
2016-10-16T01:02:46.149Z,21.11
2016-10-16T01:03:56.695Z,21.16
2016-10-16T01:05:07.241Z,21.01
2016-10-16T01:06:18.053Z,21.13
2016-10-16T01:07:28.565Z,21.13
2016-10-16T01:08:39.083Z,21.06
2016-10-16T01:09:49.634Z,21.02
2016-10-16T01:11:00.175Z,21.09
2016-10-16T01:12:10.683Z,21.14
2016-10-16T01:13:21.177Z,21.13
2016-10-16T01:14:31.674Z,21.13
2016-10-16T01:15:42.236Z,21.11
2016-10-16T01:16:52.764Z,21.05
2016-10-16T01:18:03.400Z,21.14
2016-10-16T01:19:14.364Z,21.11
2016-10-16T01:20:24.888Z,21.19
2016-10-16T01:21:35.358Z,21.21
2016-10-16T01:22:46.229Z,21.23
2016-10-16T01:23:57.210Z,21.32
2016-10-16T01:25:07.713Z,21.35
2016-10-16T01:26:18.207Z,21.3
2016-10-16T01:27:28.697Z,21.41
2016-10-16T01:28:39.208Z,21.34
2016-10-16T01:29:49.824Z,21.32
2016-10-16T01:31:00.703Z,21.41
2016-10-16T01:32:11.230Z,21.34
2016-10-16T01:33:21.698Z,21.27
2016-10-16T01:34:32.200Z,21.27
2016-10-16T01:35:42.693Z,21.24
2016-10-16T01:36:53.219Z,21.32
2016-10-16T01:38:03.698Z,21.36
2016-10-16T01:39:14.165Z,21.36
2016-10-16T01:40:25.163Z,21.32
2016-10-16T01:41:35.767Z,21.35
2016-10-16T01:42:46.319Z,21.38
2016-10-16T01:43:56.813Z,21.38
2016-10-16T01:45:07.305Z,21.32
2016-10-16T01:46:17.777Z,21.3
2016-10-16T01:47:28.338Z,21.32
2016-10-16T01:48:38.866Z,21.36
2016-10-16T01:49:49.349Z,21.34
2016-10-16T01:50:59.873Z,21.27
2016-10-16T01:52:10.381Z,21.27
2016-10-16T01:53:20.994Z,21.14
2016-10-16T01:54:31.449Z,21.23
2016-10-16T01:55:41.930Z,21.17
2016-10-16T01:56:52.445Z,21.17
2016-10-16T01:58:03.018Z,21.2
2016-10-16T01:59:13.527Z,21.13
2016-10-16T02:00:24.028Z,21.09
2016-10-16T02:01:34.534Z,21.09
2016-10-16T02:02:45.461Z,21.09
2016-10-16T02:03:55.970Z,21.08
2016-10-16T02:05:06.587Z,21.09
2016-10-16T02:06:17.066Z,20.98
2016-10-16T02:07:27.524Z,20.96
2016-10-16T02:08:38.034Z,20.93
2016-10-16T02:09:48.522Z,20.89
2016-10-16T02:10:59.110Z,20.93
2016-10-16T02:12:09.605Z,20.93
2016-10-16T02:13:20.133Z,20.96
2016-10-16T02:14:30.631Z,20.95
2016-10-16T02:15:41.125Z,20.98
2016-10-16T02:16:51.641Z,20.9
2016-10-16T02:18:02.152Z,20.93
2016-10-16T02:19:12.668Z,20.95
2016-10-16T02:20:23.181Z,20.91
2016-10-16T02:21:33.699Z,20.9
2016-10-16T02:22:44.331Z,21.02
2016-10-16T02:23:55.246Z,21.08
2016-10-16T02:25:06.214Z,21.04
2016-10-16T02:26:16.768Z,21.01
2016-10-16T02:27:27.226Z,20.98
2016-10-16T02:28:37.853Z,20.99
2016-10-16T02:29:48.722Z,21.04
2016-10-16T02:30:59.232Z,21.04
2016-10-16T02:32:10.096Z,21.04
2016-10-16T02:33:20.592Z,20.95
2016-10-16T02:34:31.178Z,21.09
2016-10-16T02:35:41.630Z,20.95
2016-10-16T02:36:52.102Z,20.9
2016-10-16T02:38:02.570Z,20.99
2016-10-16T02:39:13.017Z,20.84
2016-10-16T02:40:23.477Z,20.87
2016-10-16T02:41:33.980Z,20.74
2016-10-16T02:42:44.512Z,20.76
2016-10-16T02:43:55.049Z,20.68
2016-10-16T02:45:05.522Z,20.68
2016-10-16T02:46:16.116Z,20.68
2016-10-16T02:47:26.621Z,20.66
2016-10-16T02:48:37.104Z,20.68
2016-10-16T02:49:47.590Z,20.64
2016-10-16T02:50:58.092Z,20.69
2016-10-16T02:52:08.648Z,20.72
2016-10-16T02:53:19.178Z,20.68
2016-10-16T02:54:29.647Z,20.62
2016-10-16T02:55:40.157Z,20.72
2016-10-16T02:56:50.643Z,20.69
2016-10-16T02:58:01.282Z,20.59
2016-10-16T02:59:11.783Z,20.5
2016-10-16T03:00:22.287Z,20.56
2016-10-16T03:01:32.769Z,20.56
2016-10-16T03:02:43.258Z,20.54
2016-10-16T03:03:53.743Z,20.49
2016-10-16T03:05:04.252Z,20.54
2016-10-16T03:06:14.778Z,20.49
2016-10-16T03:07:25.288Z,20.35
2016-10-16T03:08:35.767Z,20.42
2016-10-16T03:09:46.413Z,20.46
2016-10-16T03:10:56.910Z,20.42
2016-10-16T03:12:07.389Z,20.51
2016-10-16T03:13:17.884Z,20.51
2016-10-16T03:14:28.412Z,20.54
2016-10-16T03:15:38.987Z,20.53
2016-10-16T03:16:49.499Z,20.61
2016-10-16T03:18:00.012Z,20.62
2016-10-16T03:19:10.538Z,20.56
2016-10-16T03:20:21.487Z,20.53
2016-10-16T03:21:32.097Z,20.53
2016-10-16T03:22:43.002Z,20.56
2016-10-16T03:23:53.488Z,20.61
2016-10-16T03:25:05.269Z,20.56
2016-10-16T03:26:15.751Z,20.58
2016-10-16T03:27:26.269Z,20.53
2016-10-16T03:28:36.716Z,20.49
2016-10-16T03:29:47.210Z,20.54
2016-10-16T03:30:57.692Z,20.47
2016-10-16T03:32:08.203Z,20.47
2016-10-16T03:33:18.837Z,20.46
2016-10-16T03:34:29.316Z,20.43
2016-10-16T03:35:39.798Z,20.39
2016-10-16T03:36:50.258Z,20.47
2016-10-16T03:38:00.752Z,20.43
2016-10-16T03:39:11.330Z,20.34
2016-10-16T03:40:21.807Z,20.42
2016-10-16T03:41:32.308Z,20.43
2016-10-16T03:42:42.797Z,20.42
2016-10-16T03:43:53.629Z,20.41
2016-10-16T03:45:04.627Z,20.41
2016-10-16T03:46:15.121Z,20.42
2016-10-16T03:47:26.006Z,20.39
2016-10-16T03:48:36.455Z,20.49
2016-10-16T03:49:46.931Z,20.34
2016-10-16T03:50:57.890Z,20.41
2016-10-16T03:52:08.365Z,20.5
2016-10-16T03:53:18.853Z,20.49
2016-10-16T03:54:29.350Z,20.38
2016-10-16T03:55:39.855Z,20.33
2016-10-16T03:56:50.442Z,20.38
2016-10-16T03:58:00.959Z,20.38
2016-10-16T03:59:11.442Z,20.35
2016-10-16T04:00:21.987Z,20.39
2016-10-16T04:01:32.447Z,20.33
2016-10-16T04:02:43.047Z,20.28
2016-10-16T04:03:53.554Z,20.27
2016-10-16T04:05:04.045Z,20.28
2016-10-16T04:06:14.511Z,20.27
2016-10-16T04:07:25.043Z,20.24
2016-10-16T04:08:35.701Z,20.23
2016-10-16T04:09:46.228Z,20.25
2016-10-16T04:10:57.239Z,20.23
2016-10-16T04:12:07.745Z,20.34
2016-10-16T04:13:18.280Z,20.34
2016-10-16T04:14:28.835Z,20.41
2016-10-16T04:15:39.417Z,20.33
2016-10-16T04:16:49.984Z,20.28
2016-10-16T04:18:01.294Z,20.38
2016-10-16T04:19:11.838Z,20.38
2016-10-16T04:20:22.500Z,20.34
2016-10-16T04:21:32.984Z,20.33
2016-10-16T04:22:43.501Z,20.3
2016-10-16T04:23:54.049Z,20.21
2016-10-16T04:25:04.610Z,20.23
2016-10-16T04:26:15.575Z,20.24
2016-10-16T04:27:26.108Z,20.27
2016-10-16T04:28:36.650Z,20.25
2016-10-16T04:29:47.184Z,20.25
2016-10-16T04:30:57.764Z,20.27
2016-10-16T04:32:08.416Z,20.25
2016-10-16T04:33:19.744Z,20.25
2016-10-16T04:34:30.233Z,20.25
2016-10-16T04:35:40.775Z,20.28
2016-10-16T04:36:51.335Z,20.27
2016-10-16T04:38:01.872Z,20.21
2016-10-16T04:39:12.344Z,20.3
2016-10-16T04:40:22.905Z,20.21
2016-10-16T04:41:33.400Z,20.16
2016-10-16T04:42:43.904Z,20.13
2016-10-16T04:43:54.538Z,20.09
2016-10-16T04:45:05.086Z,20.09
2016-10-16T04:46:15.608Z,20.16
2016-10-16T04:47:26.103Z,20.16
2016-10-16T04:48:36.627Z,20.03
2016-10-16T04:49:47.235Z,19.95
2016-10-16T04:50:57.772Z,20.09
2016-10-16T04:52:08.286Z,20.08
2016-10-16T04:53:18.844Z,20
2016-10-16T04:54:29.339Z,20.12
2016-10-16T04:55:39.968Z,20.15
2016-10-16T04:56:50.542Z,20.12
2016-10-16T04:58:01.089Z,20.12
2016-10-16T04:59:11.653Z,20.1
2016-10-16T05:00:22.210Z,20.16
2016-10-16T05:01:32.716Z,20.15
2016-10-16T05:02:43.231Z,20.15
2016-10-16T05:03:53.763Z,20.13
2016-10-16T05:05:04.289Z,20.1
2016-10-16T05:06:14.863Z,20.1
2016-10-16T05:07:25.543Z,20.02
2016-10-16T05:08:36.072Z,20.05
2016-10-16T05:09:46.594Z,20.02
2016-10-16T05:10:57.059Z,20.08
2016-10-16T05:12:07.595Z,20.08
2016-10-16T05:13:18.207Z,20.05
2016-10-16T05:14:28.730Z,20.03
2016-10-16T05:15:39.208Z,19.98
2016-10-16T05:16:50.202Z,20.02
2016-10-16T05:18:00.659Z,19.97
2016-10-16T05:19:11.262Z,20.05
2016-10-16T05:20:21.714Z,19.95
2016-10-16T05:21:32.211Z,19.95
2016-10-16T05:22:42.721Z,19.98
2016-10-16T05:23:53.191Z,19.95
2016-10-16T05:25:03.775Z,20
2016-10-16T05:26:14.277Z,19.94
2016-10-16T05:27:24.791Z,19.94
2016-10-16T05:28:35.314Z,19.86
2016-10-16T05:29:45.799Z,19.93
2016-10-16T05:30:56.349Z,19.93
2016-10-16T05:32:06.812Z,19.84
2016-10-16T05:33:17.301Z,19.87
2016-10-16T05:34:27.761Z,19.98
2016-10-16T05:35:38.269Z,19.87
2016-10-16T05:36:48.728Z,19.97
2016-10-16T05:37:59.186Z,19.83
2016-10-16T05:39:10.130Z,19.8
2016-10-16T05:40:20.698Z,19.9
2016-10-16T05:41:31.247Z,19.83
2016-10-16T05:42:41.877Z,19.83
2016-10-16T05:43:52.816Z,19.73
2016-10-16T05:45:03.326Z,19.79
2016-10-16T05:46:13.846Z,19.8
2016-10-16T05:47:24.724Z,19.8
2016-10-16T05:48:35.380Z,19.8
2016-10-16T05:49:45.868Z,19.79
2016-10-16T05:50:56.435Z,19.84
2016-10-16T05:52:06.986Z,19.87
2016-10-16T05:53:17.512Z,19.9
2016-10-16T05:54:28.131Z,19.87
2016-10-16T05:55:38.641Z,19.86
2016-10-16T05:56:49.165Z,19.8
2016-10-16T05:57:59.709Z,19.83
2016-10-16T05:59:10.250Z,19.83
2016-10-16T06:00:20.832Z,19.8
2016-10-16T06:01:31.371Z,19.84
2016-10-16T06:02:41.891Z,19.8
2016-10-16T06:03:52.467Z,19.94
2016-10-16T06:05:03.029Z,19.9
2016-10-16T06:06:13.707Z,19.91
2016-10-16T06:07:24.250Z,19.84
2016-10-16T06:08:34.821Z,19.8
2016-10-16T06:09:45.357Z,19.78
2016-10-16T06:10:55.906Z,19.83
2016-10-16T06:12:06.548Z,19.75
2016-10-16T06:13:17.055Z,19.69
2016-10-16T06:14:27.576Z,19.75
2016-10-16T06:15:38.042Z,19.7
2016-10-16T06:16:48.511Z,19.65
2016-10-16T06:17:59.159Z,19.69
2016-10-16T06:19:09.691Z,19.76
2016-10-16T06:20:20.201Z,19.68
2016-10-16T06:21:31.572Z,19.66
2016-10-16T06:22:42.059Z,19.66
2016-10-16T06:23:52.537Z,19.61
2016-10-16T06:25:03.031Z,19.63
2016-10-16T06:26:13.568Z,19.61
2016-10-16T06:27:24.024Z,19.69
2016-10-16T06:28:34.532Z,19.69
2016-10-16T06:29:45.103Z,19.78
2016-10-16T06:30:56.079Z,19.73
2016-10-16T06:32:06.575Z,19.8
2016-10-16T06:33:17.057Z,19.8
2016-10-16T06:34:28.056Z,19.79
2016-10-16T06:35:38.687Z,19.78
2016-10-16T06:36:49.146Z,19.78
2016-10-16T06:37:59.685Z,19.63
2016-10-16T06:39:10.183Z,19.7
2016-10-16T06:40:20.653Z,19.6
2016-10-16T06:41:31.232Z,19.53
2016-10-16T06:42:41.768Z,19.57
2016-10-16T06:43:52.250Z,19.43
2016-10-16T06:45:02.755Z,19.46
2016-10-16T06:46:13.213Z,19.47
2016-10-16T06:47:23.749Z,19.4
2016-10-16T06:48:34.263Z,19.43
2016-10-16T06:49:44.749Z,19.47
2016-10-16T06:50:55.253Z,19.42
2016-10-16T06:52:05.751Z,19.36
2016-10-16T06:53:17.320Z,19.46
2016-10-16T06:54:27.801Z,19.39
2016-10-16T06:55:38.743Z,19.47
2016-10-16T06:56:49.266Z,19.42
2016-10-16T06:57:59.763Z,19.46
2016-10-16T06:59:10.383Z,19.47
2016-10-16T07:00:20.881Z,19.36
2016-10-16T07:01:31.365Z,19.42
2016-10-16T07:02:41.823Z,19.35
2016-10-16T07:03:52.344Z,19.38
2016-10-16T07:05:03.816Z,19.25
2016-10-16T07:06:14.293Z,19.36
2016-10-16T07:07:24.747Z,19.36
2016-10-16T07:08:35.255Z,19.42
2016-10-16T07:09:46.159Z,19.47
2016-10-16T07:10:56.653Z,19.39
2016-10-16T07:12:07.161Z,19.47
2016-10-16T07:13:17.693Z,19.47
2016-10-16T07:14:28.194Z,19.46
2016-10-16T07:15:39.077Z,19.43
2016-10-16T07:16:49.690Z,19.53
2016-10-16T07:18:00.187Z,19.43
2016-10-16T07:19:10.674Z,19.43
2016-10-16T07:20:21.202Z,19.46
2016-10-16T07:21:31.699Z,19.47
2016-10-16T07:22:42.273Z,19.42
2016-10-16T07:23:52.773Z,19.43
2016-10-16T07:25:03.319Z,19.46
2016-10-16T07:26:13.803Z,19.43
2016-10-16T07:27:24.294Z,19.53
2016-10-16T07:28:34.883Z,19.51
2016-10-16T07:29:45.869Z,19.46
2016-10-16T07:30:57.146Z,19.43
2016-10-16T07:32:07.608Z,19.53
2016-10-16T07:33:18.500Z,19.46
2016-10-16T07:34:29.450Z,19.46
2016-10-16T07:35:39.941Z,19.4
2016-10-16T07:36:50.414Z,19.53
2016-10-16T07:38:00.927Z,19.39
2016-10-16T07:39:11.439Z,19.48
2016-10-16T07:40:22.523Z,19.43
2016-10-16T07:41:33.061Z,19.4
2016-10-16T07:42:43.547Z,19.43
2016-10-16T07:43:54.023Z,19.46
2016-10-16T07:45:04.529Z,19.47
2016-10-16T07:46:15.121Z,19.5
2016-10-16T07:47:25.623Z,19.54
2016-10-16T07:48:36.103Z,19.43
2016-10-16T07:49:46.565Z,19.47
2016-10-16T07:50:57.083Z,19.43
2016-10-16T07:52:07.732Z,19.5
2016-10-16T07:53:18.787Z,19.42
2016-10-16T07:54:29.337Z,19.5
2016-10-16T07:55:39.897Z,19.47
2016-10-16T07:56:50.383Z,19.46
2016-10-16T07:58:00.861Z,19.54
2016-10-16T07:59:11.414Z,19.42
2016-10-16T08:00:22.345Z,19.43
2016-10-16T08:01:32.884Z,19.43
2016-10-16T08:02:43.440Z,19.4
2016-10-16T08:03:54.076Z,19.32
2016-10-16T08:05:04.611Z,19.33
2016-10-16T08:06:15.121Z,19.31
2016-10-16T08:07:25.644Z,19.29
2016-10-16T08:08:36.191Z,19.35
2016-10-16T08:09:46.826Z,19.28
2016-10-16T08:10:57.374Z,19.29
2016-10-16T08:12:07.928Z,19.28
2016-10-16T08:13:18.451Z,19.35
2016-10-16T08:14:28.974Z,19.31
2016-10-16T08:15:39.634Z,19.33
2016-10-16T08:16:50.964Z,19.31
2016-10-16T08:18:01.532Z,19.35
2016-10-16T08:19:12.068Z,19.4
2016-10-16T08:20:22.598Z,19.42
2016-10-16T08:21:33.171Z,19.38
2016-10-16T08:22:43.678Z,19.33
2016-10-16T08:23:54.249Z,19.4
2016-10-16T08:25:04.768Z,19.21
2016-10-16T08:26:15.271Z,19.24
2016-10-16T08:27:25.918Z,19.29
2016-10-16T08:28:36.475Z,19.35
2016-10-16T08:29:47.017Z,19.25
2016-10-16T08:30:57.532Z,19.31
2016-10-16T08:32:08.070Z,19.35
2016-10-16T08:33:18.720Z,19.31
2016-10-16T08:34:29.232Z,19.35
2016-10-16T08:35:39.782Z,19.31
2016-10-16T08:36:50.272Z,19.33
2016-10-16T08:38:00.780Z,19.35
2016-10-16T08:39:11.944Z,19.35
2016-10-16T08:40:22.510Z,19.32
2016-10-16T08:41:33.019Z,19.32
2016-10-16T08:42:43.542Z,19.36
2016-10-16T08:43:54.057Z,19.32
2016-10-16T08:45:04.711Z,19.43
2016-10-16T08:46:15.294Z,19.35
2016-10-16T08:47:26.274Z,19.38
2016-10-16T08:48:36.766Z,19.46
2016-10-16T08:49:47.331Z,19.35
2016-10-16T08:50:57.982Z,19.38
2016-10-16T08:52:08.979Z,19.42
2016-10-16T08:53:19.555Z,19.42
2016-10-16T08:54:30.070Z,19.39
2016-10-16T08:55:40.547Z,19.46
2016-10-16T08:56:51.010Z,19.6
2016-10-16T08:58:01.463Z,19.61
2016-10-16T08:59:11.911Z,19.69
2016-10-16T09:00:22.370Z,19.73
2016-10-16T09:01:32.837Z,19.66
2016-10-16T09:02:43.396Z,19.72
2016-10-16T09:03:53.849Z,19.69
2016-10-16T09:05:04.312Z,19.7
2016-10-16T09:06:14.774Z,19.72
2016-10-16T09:07:25.228Z,19.83
2016-10-16T09:08:35.782Z,19.78
2016-10-16T09:09:46.229Z,19.84
2016-10-16T09:10:56.687Z,19.83
2016-10-16T09:12:07.176Z,19.97
2016-10-16T09:13:17.641Z,19.94
2016-10-16T09:14:28.207Z,19.9
2016-10-16T09:15:38.666Z,20
2016-10-16T09:16:49.118Z,19.97
2016-10-16T09:17:59.576Z,19.93
2016-10-16T09:19:10.032Z,20.08
2016-10-16T09:20:20.599Z,20.09
2016-10-16T09:21:31.052Z,20.13
2016-10-16T09:22:41.515Z,20.09
2016-10-16T09:23:52.361Z,20.21
2016-10-16T09:25:02.812Z,20.27
2016-10-16T09:26:13.371Z,20.35
2016-10-16T09:27:23.825Z,20.47
2016-10-16T09:28:34.334Z,20.41
2016-10-16T09:29:45.238Z,20.5
2016-10-16T09:30:55.752Z,20.65
2016-10-16T09:32:06.266Z,20.65
2016-10-16T09:33:16.745Z,20.69
2016-10-16T09:34:27.239Z,20.83
2016-10-16T09:35:37.734Z,20.84
2016-10-16T09:36:48.268Z,21.02
2016-10-16T09:37:58.851Z,20.93
2016-10-16T09:39:09.367Z,20.99
2016-10-16T09:40:19.856Z,21.05
2016-10-16T09:41:30.747Z,21.11
2016-10-16T09:42:41.229Z,21.21
2016-10-16T09:43:51.783Z,21.42
2016-10-16T09:45:02.257Z,21.71
2016-10-16T09:46:12.771Z,22.02
2016-10-16T09:47:23.273Z,22.49
2016-10-16T09:48:33.776Z,23.02
2016-10-16T09:49:44.364Z,23.76
2016-10-16T09:50:54.863Z,24.39
2016-10-16T09:52:05.373Z,24.91
2016-10-16T09:53:15.871Z,25.38
2016-10-16T09:54:26.821Z,25.97
2016-10-16T09:55:37.484Z,26.18
2016-10-16T09:56:47.980Z,26.01
2016-10-16T09:57:58.455Z,26.12
2016-10-16T09:59:08.985Z,26.17
2016-10-16T10:00:19.495Z,26.55
2016-10-16T10:01:30.024Z,26.87
2016-10-16T10:02:40.572Z,27.14
2016-10-16T10:03:51.064Z,27.48
2016-10-16T10:05:01.601Z,27.71
2016-10-16T10:06:12.140Z,28.38
2016-10-16T10:07:22.788Z,28.4
2016-10-16T10:08:33.323Z,28.58
2016-10-16T10:09:43.817Z,28.59
2016-10-16T10:10:54.318Z,28.88
2016-10-16T10:12:04.795Z,29.23
2016-10-16T10:13:15.410Z,29.57
2016-10-16T10:14:25.936Z,29.47
2016-10-16T10:15:36.426Z,29.53
2016-10-16T10:16:46.906Z,29.71
2016-10-16T10:17:57.415Z,29.78
2016-10-16T10:19:08.028Z,29.82
2016-10-16T10:20:18.526Z,29.89
2016-10-16T10:21:29.026Z,30.26
2016-10-16T10:22:39.526Z,30.52
2016-10-16T10:23:50.067Z,30.76
2016-10-16T10:25:00.543Z,31.04
2016-10-16T10:26:11.020Z,31.15
2016-10-16T10:27:21.915Z,31.24
2016-10-16T10:28:32.419Z,31.31
2016-10-16T10:29:42.942Z,31.3
2016-10-16T10:30:53.923Z,31.21
2016-10-16T10:32:04.425Z,31.58
2016-10-16T10:33:14.904Z,31.84
2016-10-16T10:34:25.420Z,31.79
2016-10-16T10:35:35.937Z,31.98
2016-10-16T10:36:46.525Z,32.06
2016-10-16T10:37:57.415Z,31.8
2016-10-16T10:39:07.941Z,31.76
2016-10-16T10:40:18.429Z,31.98
2016-10-16T10:41:28.925Z,32.02
2016-10-16T10:42:39.399Z,32.2
2016-10-16T10:43:49.919Z,31.93
2016-10-16T10:45:00.485Z,31.77
2016-10-16T10:46:11.019Z,31.73
2016-10-16T10:47:22.014Z,31.67
2016-10-16T10:48:32.605Z,31.82
2016-10-16T10:49:43.119Z,31.88
2016-10-16T10:50:53.642Z,31.53
2016-10-16T10:52:04.174Z,32.02
2016-10-16T10:53:14.657Z,32.58
2016-10-16T10:54:25.232Z,32.39
2016-10-16T10:55:35.733Z,31.92
2016-10-16T10:56:46.212Z,32.02
2016-10-16T10:57:56.735Z,31.46
2016-10-16T10:59:07.250Z,31.38
2016-10-16T11:00:17.859Z,31.26
2016-10-16T11:01:28.370Z,31.3
2016-10-16T11:02:38.894Z,31.3
2016-10-16T11:03:49.409Z,31.67
2016-10-16T11:04:59.938Z,32.24
2016-10-16T11:06:10.463Z,32.3
2016-10-16T11:07:20.928Z,32.51
2016-10-16T11:08:31.422Z,32.98
2016-10-16T11:09:41.913Z,33.3
2016-10-16T11:10:52.466Z,33.34
2016-10-16T11:12:03.544Z,32.58
2016-10-16T11:13:14.461Z,32.48
2016-10-16T11:14:25.005Z,32.37
2016-10-16T11:15:35.523Z,32.42
2016-10-16T11:16:46.018Z,32.4
2016-10-16T11:17:56.598Z,32.44
2016-10-16T11:19:07.131Z,32.51
2016-10-16T11:20:17.672Z,32.58
2016-10-16T11:21:28.189Z,32.49
2016-10-16T11:22:38.708Z,32.48
2016-10-16T11:23:49.700Z,32.99
2016-10-16T11:25:00.200Z,33.23
2016-10-16T11:26:10.713Z,33.42
2016-10-16T11:27:21.245Z,33.34
2016-10-16T11:28:31.760Z,33.53
2016-10-16T11:29:42.239Z,33.92
2016-10-16T11:30:52.730Z,33.67
2016-10-16T11:32:03.265Z,33.48
2016-10-16T11:33:13.809Z,33.19
2016-10-16T11:34:24.286Z,32.98
2016-10-16T11:35:34.866Z,33.37
2016-10-16T11:36:45.368Z,33.13
2016-10-16T11:37:55.875Z,33.49
2016-10-16T11:39:06.354Z,33.6
2016-10-16T11:40:16.892Z,33.15
2016-10-16T11:41:27.482Z,33.2
2016-10-16T11:42:38.379Z,33.22
2016-10-16T11:43:48.898Z,33.17
2016-10-16T11:44:59.819Z,33.11
2016-10-16T11:46:10.306Z,32.91
2016-10-16T11:47:20.920Z,33.42
2016-10-16T11:48:31.422Z,34.48
2016-10-16T11:49:41.927Z,35.1
2016-10-16T11:50:52.394Z,35.17
2016-10-16T11:52:02.929Z,35.06
2016-10-16T11:53:13.561Z,35.21
2016-10-16T11:54:24.068Z,35.18
2016-10-16T11:55:34.584Z,34.6
2016-10-16T11:56:45.109Z,34.48
2016-10-16T11:57:55.595Z,34.77
2016-10-16T11:59:06.695Z,34.89
2016-10-16T12:00:17.589Z,35.18
2016-10-16T12:01:28.112Z,35.39
2016-10-16T12:02:38.673Z,35.35
2016-10-16T12:03:49.246Z,35.57
2016-10-16T12:04:59.879Z,35.33
2016-10-16T12:06:10.773Z,35.74
2016-10-16T12:07:21.293Z,35.4
2016-10-16T12:08:31.795Z,35.02
2016-10-16T12:09:42.288Z,35.3
2016-10-16T12:10:52.832Z,35.6
2016-10-16T12:12:04.265Z,35.99
2016-10-16T12:13:14.799Z,35.91
2016-10-16T12:14:25.366Z,36.14
2016-10-16T12:15:35.896Z,36.64
2016-10-16T12:16:46.677Z,37.05
2016-10-16T12:17:57.238Z,36.65
2016-10-16T12:19:07.804Z,36.3
2016-10-16T12:20:18.360Z,36.68
2016-10-16T12:21:28.938Z,37.13
2016-10-16T12:22:39.622Z,36.95
2016-10-16T12:23:50.208Z,36.42
2016-10-16T12:25:00.805Z,36.76
2016-10-16T12:26:11.373Z,36.76
2016-10-16T12:27:21.944Z,36.67
2016-10-16T12:28:32.491Z,36.68
2016-10-16T12:29:43.016Z,36.41
2016-10-16T12:30:53.574Z,36.24
2016-10-16T12:32:04.596Z,36.42
2016-10-16T12:33:15.131Z,36.83
2016-10-16T12:34:25.783Z,36.83
2016-10-16T12:35:36.361Z,36.94
2016-10-16T12:36:46.957Z,36.31
2016-10-16T12:37:57.528Z,35.17
2016-10-16T12:39:08.104Z,35.35
2016-10-16T12:40:18.744Z,35.35
2016-10-16T12:41:29.282Z,34.96
2016-10-16T12:42:39.855Z,35.32
2016-10-16T12:43:50.446Z,35.35
2016-10-16T12:45:00.985Z,35.62
2016-10-16T12:46:11.638Z,35.54
2016-10-16T12:47:22.199Z,35.67
2016-10-16T12:48:32.768Z,36.12
2016-10-16T12:49:43.313Z,36.36
2016-10-16T12:50:53.847Z,36.23
2016-10-16T12:52:04.502Z,36.39
2016-10-16T12:53:15.104Z,36.43
2016-10-16T12:54:25.657Z,36.2
2016-10-16T12:55:36.210Z,36.35
2016-10-16T12:56:46.750Z,35.6
2016-10-16T12:57:57.354Z,35.03
2016-10-16T12:59:07.933Z,35.13
2016-10-16T13:00:18.861Z,35.18
2016-10-16T13:01:29.810Z,35.42
2016-10-16T13:02:40.351Z,34.91
2016-10-16T13:03:50.893Z,34.56
2016-10-16T13:05:01.447Z,34.53
2016-10-16T13:06:11.955Z,34.39
2016-10-16T13:07:22.469Z,34.01
2016-10-16T13:08:33.433Z,33.95
2016-10-16T13:09:44.045Z,34.08
2016-10-16T13:10:54.617Z,34.42
2016-10-16T13:12:05.213Z,34.54
2016-10-16T13:13:15.768Z,34.39
2016-10-16T13:14:26.817Z,34.95
2016-10-16T13:15:37.787Z,35.28
2016-10-16T13:16:48.339Z,35.42
2016-10-16T13:17:59.237Z,35.52
2016-10-16T13:19:09.742Z,35.39
2016-10-16T13:20:20.258Z,35.44
2016-10-16T13:21:30.836Z,35.93
2016-10-16T13:22:41.352Z,36.17
2016-10-16T13:23:51.880Z,36
2016-10-16T13:25:02.421Z,35.86
2016-10-16T13:26:12.937Z,35.85
2016-10-16T13:27:23.463Z,35.72
2016-10-16T13:28:33.997Z,35.4
2016-10-16T13:29:44.529Z,34.66
2016-10-16T13:30:55.051Z,34.13
2016-10-16T13:32:05.571Z,34.27
2016-10-16T13:33:16.186Z,33.85
2016-10-16T13:34:26.680Z,34.6
2016-10-16T13:35:37.211Z,34.26
2016-10-16T13:36:47.725Z,34.13
2016-10-16T13:37:58.290Z,33.98
2016-10-16T13:39:09.313Z,34.26
2016-10-16T13:40:20.727Z,34.56
2016-10-16T13:41:31.637Z,35.03
2016-10-16T13:42:42.203Z,35.11
2016-10-16T13:43:52.703Z,34.83
2016-10-16T13:45:03.293Z,35.06
2016-10-16T13:46:13.808Z,35.36
2016-10-16T13:47:24.372Z,35.76
2016-10-16T13:48:34.874Z,36.27
2016-10-16T13:49:45.361Z,36.27
2016-10-16T13:50:55.908Z,36.6
2016-10-16T13:52:06.478Z,36.58
2016-10-16T13:53:17.531Z,36.63
2016-10-16T13:54:28.109Z,36.19
2016-10-16T13:55:38.702Z,36.26
2016-10-16T13:56:49.393Z,36.06
2016-10-16T13:57:59.961Z,36.2
2016-10-16T13:59:10.476Z,36.14
2016-10-16T14:00:21.069Z,36.24
2016-10-16T14:01:31.631Z,36.26
2016-10-16T14:02:42.219Z,36.17
2016-10-16T14:03:52.711Z,36.3
2016-10-16T14:05:03.250Z,36.39
2016-10-16T14:06:13.861Z,35.84
2016-10-16T14:07:24.447Z,35.17
2016-10-16T14:08:35.117Z,35.25
2016-10-16T14:09:45.692Z,35.25
2016-10-16T14:10:56.283Z,35.32
2016-10-16T14:12:06.854Z,35.52
2016-10-16T14:13:17.435Z,35.7
2016-10-16T14:14:27.998Z,35.45
2016-10-16T14:15:38.567Z,35.45
2016-10-16T14:16:49.108Z,35.69
2016-10-16T14:17:59.694Z,35.4
2016-10-16T14:19:10.281Z,35.77
2016-10-16T14:20:20.949Z,35.29
2016-10-16T14:21:31.494Z,35.07
2016-10-16T14:22:42.045Z,34.95
2016-10-16T14:23:52.620Z,34.99
2016-10-16T14:25:03.578Z,35.3
2016-10-16T14:26:14.196Z,35.82
2016-10-16T14:27:24.759Z,35.99
2016-10-16T14:28:35.305Z,35.6
2016-10-16T14:29:45.827Z,35.39
2016-10-16T14:30:56.402Z,35.39
2016-10-16T14:32:07.093Z,35.85
2016-10-16T14:33:17.624Z,36.19
2016-10-16T14:34:28.571Z,36.08
2016-10-16T14:35:39.127Z,36.11
2016-10-16T14:36:50.126Z,36.2
2016-10-16T14:38:00.672Z,35.7
2016-10-16T14:39:11.244Z,35.66
2016-10-16T14:40:22.315Z,35.62
2016-10-16T14:41:33.698Z,35.69
2016-10-16T14:42:44.266Z,35.48
2016-10-16T14:43:54.904Z,35.3
2016-10-16T14:45:05.481Z,35.35
2016-10-16T14:46:16.030Z,36.03
2016-10-16T14:47:26.585Z,36.45
2016-10-16T14:48:37.467Z,36.7
2016-10-16T14:49:48.139Z,36.76
2016-10-16T14:50:58.749Z,36.79
2016-10-16T14:52:09.293Z,36.61
2016-10-16T14:53:19.859Z,36.64
2016-10-16T14:54:30.430Z,36.76
2016-10-16T14:55:41.051Z,36.95
2016-10-16T14:56:51.636Z,37.09
2016-10-16T14:58:02.210Z,36.56
2016-10-16T14:59:13.165Z,36.49
2016-10-16T15:00:23.764Z,36.64
2016-10-16T15:01:34.339Z,36.72
2016-10-16T15:02:45.315Z,36.45
2016-10-16T15:03:55.875Z,36.2
2016-10-16T15:05:06.460Z,36.21
2016-10-16T15:06:17.545Z,36.3
2016-10-16T15:07:28.215Z,36.68
2016-10-16T15:08:38.753Z,36.91
2016-10-16T15:09:49.292Z,36.98
2016-10-16T15:11:00.363Z,37.33
2016-10-16T15:12:10.929Z,37.43
2016-10-16T15:13:21.566Z,37.32